createdAt,value
2022-09-29T00:00:56.817Z,6.70
2022-09-29T00:03:25.329Z,6.70
2022-09-29T00:05:55.465Z,6.60
2022-09-29T00:08:27.284Z,6.60
2022-09-29T00:10:55.443Z,6.60
2022-09-29T00:13:24.396Z,6.60
2022-09-29T00:16:01.274Z,6.60
2022-09-29T00:18:30.752Z,6.60
2022-09-29T00:21:00.221Z,6.60
2022-09-29T00:23:30.871Z,6.60
2022-09-29T00:26:07.157Z,6.70
2022-09-29T00:28:36.675Z,6.70
2022-09-29T00:31:07.116Z,6.80
2022-09-29T00:33:36.611Z,6.80
2022-09-29T00:36:06.736Z,6.80
2022-09-29T00:38:36.683Z,6.90
2022-09-29T00:41:06.079Z,6.90
2022-09-29T00:43:55.615Z,6.90
2022-09-29T00:46:30.209Z,7.00
2022-09-29T00:49:03.533Z,7.00
2022-09-29T00:51:33.441Z,7.00
2022-09-29T00:54:03.811Z,7.10
2022-09-29T00:56:32.993Z,7.10
2022-09-29T00:59:04.107Z,7.10
2022-09-29T01:01:33.738Z,7.10
2022-09-29T01:04:06.931Z,7.10
2022-09-29T01:06:39.844Z,7.10
2022-09-29T01:09:12.227Z,7.00
2022-09-29T01:11:40.250Z,7.00
2022-09-29T01:14:10.463Z,7.00
2022-09-29T01:16:42.127Z,7.00
2022-09-29T01:19:17.174Z,7.00
2022-09-29T01:21:57.625Z,7.10
2022-09-29T01:24:58.356Z,7.00
2022-09-29T01:27:56.277Z,7.00
2022-09-29T01:30:41.500Z,7.10
2022-09-29T01:33:24.422Z,7.00
2022-09-29T01:36:00.474Z,7.00
2022-09-29T01:38:42.708Z,6.90
2022-09-29T01:41:17.323Z,6.90
2022-09-29T01:43:50.781Z,6.90
2022-09-29T01:46:24.635Z,6.90
2022-09-29T01:48:56.647Z,6.90
2022-09-29T01:51:28.564Z,7.00
2022-09-29T01:54:02.703Z,7.00
2022-09-29T01:56:35.222Z,7.10
2022-09-29T01:59:09.833Z,7.10
2022-09-29T02:01:43.682Z,7.20
2022-09-29T02:04:17.749Z,7.20
2022-09-29T02:06:51.252Z,7.20
2022-09-29T02:09:23.599Z,7.20
2022-09-29T02:11:54.123Z,7.20
2022-09-29T02:14:25.059Z,7.20
2022-09-29T02:17:00.134Z,7.20
2022-09-29T02:19:32.169Z,7.20
2022-09-29T02:22:00.227Z,7.20
2022-09-29T02:24:28.281Z,7.20
2022-09-29T02:26:57.447Z,7.20
2022-09-29T02:29:25.684Z,7.30
2022-09-29T02:31:57.324Z,7.30
2022-09-29T02:34:26.260Z,7.30
2022-09-29T02:37:00.089Z,7.30
2022-09-29T02:39:38.893Z,7.30
2022-09-29T02:42:18.960Z,7.20
2022-09-29T02:45:01.935Z,7.20
2022-09-29T02:47:46.722Z,7.30
2022-09-29T02:50:40.335Z,7.30
2022-09-29T02:53:22.292Z,7.40
2022-09-29T02:55:58.718Z,7.40
2022-09-29T02:58:33.009Z,7.40
2022-09-29T03:01:01.757Z,7.40
2022-09-29T03:03:31.221Z,7.50
2022-09-29T03:05:59.326Z,7.50
2022-09-29T03:08:27.417Z,7.50
2022-09-29T03:10:55.389Z,7.50
2022-09-29T03:13:23.403Z,7.40
2022-09-29T03:15:51.460Z,7.40
2022-09-29T03:18:19.551Z,7.30
2022-09-29T03:20:48.891Z,7.30
2022-09-29T03:23:17.330Z,7.30
2022-09-29T03:25:45.314Z,7.30
2022-09-29T03:28:13.357Z,7.40
2022-09-29T03:30:41.342Z,7.40
2022-09-29T03:33:09.543Z,7.30
2022-09-29T03:35:40.341Z,7.40
2022-09-29T03:38:11.975Z,7.40
2022-09-29T03:40:40.366Z,7.40
2022-09-29T03:43:08.394Z,7.50
2022-09-29T03:45:36.449Z,7.50
2022-09-29T03:48:04.547Z,7.60
2022-09-29T03:50:32.565Z,7.60
2022-09-29T03:53:00.542Z,7.70
2022-09-29T03:55:29.913Z,7.60
2022-09-29T03:57:57.886Z,7.60
2022-09-29T04:00:25.928Z,7.60
2022-09-29T04:02:56.022Z,7.70
2022-09-29T04:05:24.078Z,7.80
2022-09-29T04:07:52.045Z,7.80
2022-09-29T04:10:20.096Z,7.80
2022-09-29T04:12:49.475Z,7.80
2022-09-29T04:15:17.684Z,7.80
2022-09-29T04:17:45.696Z,7.80
2022-09-29T04:20:13.748Z,7.80
2022-09-29T04:22:41.796Z,7.80
2022-09-29T04:25:10.493Z,7.80
2022-09-29T04:27:38.519Z,7.70
2022-09-29T04:30:09.582Z,7.60
2022-09-29T04:32:37.594Z,7.60
2022-09-29T04:35:06.639Z,7.50
2022-09-29T04:37:34.651Z,7.50
2022-09-29T04:40:03.680Z,7.40
2022-09-29T04:42:31.859Z,7.50
2022-09-29T04:45:00.038Z,7.40
2022-09-29T04:47:29.405Z,7.50
2022-09-29T04:49:57.407Z,7.40
2022-09-29T04:52:25.421Z,7.40
2022-09-29T04:54:53.418Z,7.30
2022-09-29T04:57:21.456Z,7.30
2022-09-29T04:59:51.799Z,7.30
2022-09-29T05:02:20.123Z,7.20
2022-09-29T05:04:49.579Z,7.30
2022-09-29T05:07:17.558Z,7.30
2022-09-29T05:09:45.570Z,7.30
2022-09-29T05:12:13.550Z,7.40
2022-09-29T05:14:41.617Z,7.40
2022-09-29T05:17:09.928Z,7.50
2022-09-29T05:19:37.955Z,7.50
2022-09-29T05:22:08.781Z,7.50
2022-09-29T05:24:36.789Z,7.60
2022-09-29T05:27:04.940Z,7.60
2022-09-29T05:29:32.971Z,7.60
2022-09-29T05:32:01.079Z,7.70
2022-09-29T05:34:29.153Z,7.60
2022-09-29T05:36:57.159Z,7.60
2022-09-29T05:39:26.576Z,7.60
2022-09-29T05:41:57.633Z,7.60
2022-09-29T05:44:28.000Z,7.60
2022-09-29T05:46:56.028Z,7.70
2022-09-29T05:49:24.048Z,7.70
2022-09-29T05:51:52.036Z,7.70
2022-09-29T05:54:20.069Z,7.70
2022-09-29T05:56:49.454Z,7.60
2022-09-29T05:59:17.527Z,7.70
2022-09-29T06:01:45.591Z,7.60
2022-09-29T06:04:13.591Z,7.60
2022-09-29T06:06:41.601Z,7.60
2022-09-29T06:09:09.724Z,7.70
2022-09-29T06:11:37.800Z,7.60
2022-09-29T06:14:07.168Z,7.60
2022-09-29T06:16:36.663Z,7.60
2022-09-29T06:19:05.815Z,7.60
2022-09-29T06:21:37.747Z,7.60
2022-09-29T06:24:07.214Z,7.70
2022-09-29T06:26:35.825Z,7.70
2022-09-29T06:29:04.239Z,7.80
2022-09-29T06:31:34.085Z,7.80
2022-09-29T06:34:04.464Z,7.90
2022-09-29T06:36:55.737Z,7.90
2022-09-29T06:39:23.796Z,8.00
2022-09-29T06:41:54.486Z,7.90
2022-09-29T06:44:24.428Z,7.90
2022-09-29T06:46:53.827Z,7.90
2022-09-29T06:49:22.302Z,8.00
2022-09-29T06:51:50.543Z,8.00
2022-09-29T06:54:20.888Z,8.00
2022-09-29T06:56:49.662Z,8.10
2022-09-29T06:59:18.058Z,8.10
2022-09-29T07:01:51.134Z,8.10
2022-09-29T07:04:22.439Z,8.10
2022-09-29T07:06:51.376Z,8.20
2022-09-29T07:09:19.957Z,8.30
2022-09-29T07:11:50.820Z,8.40
2022-09-29T07:14:22.599Z,8.50
2022-09-29T07:16:51.256Z,8.60
2022-09-29T07:19:22.224Z,8.60
2022-09-29T07:21:50.499Z,8.60
2022-09-29T07:24:18.790Z,8.60
2022-09-29T07:26:47.012Z,8.60
2022-09-29T07:29:16.073Z,8.60
2022-09-29T07:31:51.300Z,8.50
2022-09-29T07:34:21.702Z,8.60
2022-09-29T07:36:50.011Z,8.70
2022-09-29T07:39:18.124Z,9.00
2022-09-29T07:41:46.140Z,9.20
2022-09-29T07:44:14.151Z,9.30
2022-09-29T07:46:42.170Z,9.30
2022-09-29T07:49:10.150Z,9.40
2022-09-29T07:51:39.529Z,9.40
2022-09-29T07:54:07.785Z,9.40
2022-09-29T07:56:36.223Z,9.50
2022-09-29T07:59:05.146Z,9.60
2022-09-29T08:01:34.090Z,9.70
2022-09-29T08:04:03.150Z,9.80
2022-09-29T08:06:31.161Z,9.70
2022-09-29T08:09:04.832Z,9.60
2022-09-29T08:11:34.170Z,9.70
2022-09-29T08:14:02.805Z,9.80
2022-09-29T08:16:31.543Z,9.80
2022-09-29T08:19:00.298Z,10.00
2022-09-29T08:21:29.699Z,10.10
2022-09-29T08:23:57.711Z,10.30
2022-09-29T08:26:39.520Z,10.40
2022-09-29T08:29:09.468Z,10.60
2022-09-29T08:31:38.967Z,10.60
2022-09-29T08:34:07.708Z,10.70
2022-09-29T08:36:36.666Z,10.90
2022-09-29T08:39:05.101Z,10.90
2022-09-29T08:41:45.775Z,10.80
2022-09-29T08:44:34.555Z,10.90
2022-09-29T08:47:14.393Z,10.80
2022-09-29T08:49:46.197Z,10.80
2022-09-29T08:52:18.454Z,10.80
2022-09-29T08:54:49.645Z,10.70
2022-09-29T08:57:21.053Z,10.60
2022-09-29T08:59:54.554Z,10.70
2022-09-29T09:02:44.965Z,10.70
2022-09-29T09:05:43.725Z,10.70
2022-09-29T09:08:21.241Z,10.60
2022-09-29T09:10:58.806Z,10.80
2022-09-29T09:13:43.108Z,10.90
2022-09-29T09:16:22.280Z,11.20
2022-09-29T09:19:05.264Z,11.30
2022-09-29T09:21:41.412Z,11.30
2022-09-29T09:24:19.173Z,11.50
2022-09-29T09:26:49.734Z,11.60
2022-09-29T09:29:26.384Z,11.60
2022-09-29T09:32:00.276Z,11.70
2022-09-29T09:34:43.892Z,11.70
2022-09-29T09:37:17.180Z,11.80
2022-09-29T09:39:49.972Z,11.90
2022-09-29T09:42:22.352Z,11.90
2022-09-29T09:44:55.239Z,11.90
2022-09-29T09:47:27.637Z,11.90
2022-09-29T09:50:00.667Z,11.90
2022-09-29T09:52:34.587Z,12.00
2022-09-29T09:55:06.115Z,11.90
2022-09-29T09:57:52.114Z,11.80
2022-09-29T10:00:26.755Z,11.90
2022-09-29T10:02:56.987Z,11.70
2022-09-29T10:05:30.187Z,11.80
2022-09-29T10:07:58.225Z,12.00
2022-09-29T10:10:29.759Z,12.30
2022-09-29T10:13:03.074Z,12.40
2022-09-29T10:15:38.781Z,12.60
2022-09-29T10:18:14.053Z,12.50
2022-09-29T10:20:43.127Z,12.40
2022-09-29T10:23:26.339Z,12.40
2022-09-29T10:25:58.752Z,12.30
2022-09-29T10:28:29.707Z,12.10
2022-09-29T10:30:59.579Z,12.20
2022-09-29T10:33:27.925Z,12.30
2022-09-29T10:36:08.705Z,12.30
2022-09-29T10:38:38.549Z,12.20
2022-09-29T10:41:09.364Z,12.20
2022-09-29T10:43:40.155Z,12.30
2022-09-29T10:46:39.257Z,12.30
2022-09-29T10:49:14.883Z,12.30
2022-09-29T10:51:50.156Z,12.20
2022-09-29T10:54:18.606Z,12.30
2022-09-29T10:56:49.796Z,12.40
2022-09-29T10:59:19.483Z,12.40
2022-09-29T11:01:51.646Z,12.40
2022-09-29T11:04:23.850Z,12.30
2022-09-29T11:06:52.384Z,12.30
2022-09-29T11:09:36.339Z,12.40
2022-09-29T11:12:09.246Z,12.40
2022-09-29T11:14:43.511Z,12.40
2022-09-29T11:17:25.557Z,12.50
2022-09-29T11:19:55.519Z,12.50
2022-09-29T11:23:08.797Z,12.60
2022-09-29T11:26:01.989Z,12.80
2022-09-29T11:29:21.824Z,13.00
2022-09-29T11:32:13.901Z,13.00
2022-09-29T11:35:06.785Z,13.00
2022-09-29T11:37:56.066Z,13.10
2022-09-29T11:40:32.983Z,13.10
2022-09-29T11:43:21.655Z,13.30
2022-09-29T11:45:57.239Z,13.30
2022-09-29T11:49:01.015Z,13.10
2022-09-29T11:51:43.031Z,13.30
2022-09-29T11:54:31.636Z,13.30
2022-09-29T11:57:06.147Z,13.40
2022-09-29T12:00:07.323Z,13.40
2022-09-29T12:03:05.994Z,13.50
2022-09-29T12:05:45.099Z,13.50
2022-09-29T12:08:22.253Z,13.60
2022-09-29T12:10:59.250Z,13.70
2022-09-29T12:13:37.722Z,13.70
2022-09-29T12:16:10.441Z,13.70
2022-09-29T12:18:43.370Z,13.70
2022-09-29T12:21:15.637Z,13.70
2022-09-29T12:23:48.773Z,13.80
2022-09-29T12:26:20.560Z,13.80
2022-09-29T12:28:55.557Z,13.80
2022-09-29T12:31:28.338Z,13.90
2022-09-29T12:34:01.979Z,13.90
2022-09-29T12:37:02.255Z,14.00
2022-09-29T12:39:42.618Z,14.00
2022-09-29T12:42:30.846Z,14.00
2022-09-29T12:45:10.590Z,14.00
2022-09-29T12:47:55.643Z,13.90
2022-09-29T12:50:29.228Z,14.00
2022-09-29T12:53:08.424Z,13.90
2022-09-29T12:55:46.893Z,14.00
2022-09-29T12:58:23.061Z,14.10
2022-09-29T13:00:57.645Z,14.10
2022-09-29T13:04:01.363Z,14.10
2022-09-29T13:06:56.021Z,14.20
2022-09-29T13:10:00.775Z,14.20
2022-09-29T13:12:43.244Z,14.20
2022-09-29T13:15:32.282Z,14.20
2022-09-29T13:18:13.092Z,14.20
2022-09-29T13:20:54.787Z,14.30
2022-09-29T13:23:36.949Z,14.20
2022-09-29T13:26:24.076Z,14.30
2022-09-29T13:28:57.747Z,14.40
2022-09-29T13:31:33.407Z,14.50
2022-09-29T13:34:05.925Z,14.50
2022-09-29T13:36:36.339Z,14.40
2022-09-29T13:39:08.093Z,14.40
2022-09-29T13:41:38.987Z,14.40
2022-09-29T13:44:24.889Z,14.50
2022-09-29T13:46:54.890Z,14.60
2022-09-29T13:49:31.663Z,14.60
2022-09-29T13:52:03.519Z,14.60
2022-09-29T13:54:40.361Z,14.70
2022-09-29T13:57:29.937Z,14.80
2022-09-29T14:00:18.779Z,14.80
2022-09-29T14:03:04.366Z,14.80
2022-09-29T14:06:39.126Z,14.70
2022-09-29T14:09:05.344Z,14.70
2022-09-29T14:11:37.460Z,14.70
2022-09-29T14:14:08.468Z,14.70
2022-09-29T14:16:54.789Z,14.60
2022-09-29T14:19:37.367Z,14.50
2022-09-29T14:22:07.112Z,14.50
2022-09-29T14:24:48.098Z,14.40
2022-09-29T14:27:27.849Z,14.40
2022-09-29T14:30:02.855Z,14.30
2022-09-29T14:32:42.361Z,14.30
2022-09-29T14:35:24.371Z,14.30
2022-09-29T14:38:03.562Z,14.30
2022-09-29T14:40:32.057Z,14.30
2022-09-29T14:43:15.408Z,14.30
2022-09-29T14:46:24.193Z,14.20
2022-09-29T14:49:21.764Z,14.10
2022-09-29T14:52:01.289Z,14.00
2022-09-29T14:54:43.274Z,13.90
2022-09-29T14:57:34.214Z,13.90
2022-09-29T15:00:07.671Z,13.80
2022-09-29T15:02:38.267Z,13.80
2022-09-29T15:05:30.903Z,13.80
2022-09-29T15:08:00.145Z,13.60
2022-09-29T15:10:31.394Z,13.60
2022-09-29T15:13:20.157Z,13.60
2022-09-29T15:15:49.738Z,13.60
2022-09-29T15:18:31.577Z,13.50
2022-09-29T15:21:07.480Z,13.40
2022-09-29T15:24:08.257Z,13.50
2022-09-29T15:26:37.039Z,13.40
2022-09-29T15:29:07.683Z,13.30
2022-09-29T15:31:35.941Z,13.20
2022-09-29T15:34:05.278Z,13.10
2022-09-29T15:36:38.107Z,12.90
2022-09-29T15:39:08.596Z,12.90
2022-09-29T15:41:37.105Z,12.80
2022-09-29T15:44:18.517Z,12.70
2022-09-29T15:46:50.580Z,12.60
2022-09-29T15:49:21.292Z,12.50
2022-09-29T15:51:59.335Z,12.50
2022-09-29T15:54:31.669Z,12.30
2022-09-29T15:57:17.355Z,12.20
2022-09-29T15:59:51.313Z,12.30
2022-09-29T16:02:25.145Z,12.20
2022-09-29T16:04:57.080Z,12.20
2022-09-29T16:07:29.728Z,12.10
2022-09-29T16:10:09.626Z,12.00
2022-09-29T16:12:41.350Z,12.00
2022-09-29T16:15:17.477Z,11.90
2022-09-29T16:17:48.235Z,11.80
2022-09-29T16:20:20.356Z,11.80
2022-09-29T16:22:50.843Z,11.80
2022-09-29T16:25:25.505Z,11.70
2022-09-29T16:27:57.358Z,11.70
2022-09-29T16:30:28.377Z,11.60
2022-09-29T16:33:02.929Z,11.60
2022-09-29T16:35:43.087Z,11.60
2022-09-29T16:38:24.755Z,11.50
2022-09-29T16:40:54.155Z,11.40
2022-09-29T16:43:26.383Z,11.40
2022-09-29T16:45:57.131Z,11.40
2022-09-29T16:48:25.914Z,11.40
2022-09-29T16:50:57.806Z,11.30
2022-09-29T16:53:31.492Z,11.40
2022-09-29T16:56:01.888Z,11.30
2022-09-29T16:58:31.788Z,11.30
2022-09-29T17:00:59.825Z,11.30
2022-09-29T17:03:28.962Z,11.30
2022-09-29T17:05:57.004Z,11.30
2022-09-29T17:08:28.848Z,11.20
2022-09-29T17:10:58.663Z,11.20
2022-09-29T17:13:32.281Z,11.20
2022-09-29T17:16:00.917Z,11.10
2022-09-29T17:18:29.304Z,11.10
2022-09-29T17:20:57.338Z,11.00
2022-09-29T17:23:25.414Z,11.00
2022-09-29T17:26:15.284Z,11.00
2022-09-29T17:28:42.932Z,11.00
2022-09-29T17:31:13.783Z,10.90
2022-09-29T17:33:41.986Z,10.90
2022-09-29T17:36:14.687Z,10.90
2022-09-29T17:38:42.757Z,10.80
2022-09-29T17:41:16.327Z,10.80
2022-09-29T17:43:47.655Z,10.70
2022-09-29T17:46:16.655Z,10.60
2022-09-29T17:48:44.921Z,10.60
2022-09-29T17:51:16.794Z,10.50
2022-09-29T17:53:45.198Z,10.40
2022-09-29T17:56:21.878Z,10.40
2022-09-29T17:58:50.038Z,10.40
2022-09-29T18:01:21.177Z,10.20
2022-09-29T18:03:49.791Z,10.20
2022-09-29T18:06:22.343Z,10.10
2022-09-29T18:08:53.795Z,10.10
2022-09-29T18:11:27.024Z,10.10
2022-09-29T18:13:56.250Z,10.00
2022-09-29T18:16:26.356Z,10.00
2022-09-29T18:18:58.781Z,9.90
2022-09-29T18:21:27.160Z,9.90
2022-09-29T18:23:55.229Z,9.80
2022-09-29T18:26:24.582Z,9.80
2022-09-29T18:28:54.914Z,9.80
2022-09-29T18:31:26.488Z,9.70
2022-09-29T18:33:55.423Z,9.70
2022-09-29T18:36:23.485Z,9.60
2022-09-29T18:38:51.543Z,9.60
2022-09-29T18:41:22.387Z,9.60
2022-09-29T18:43:54.129Z,9.50
2022-09-29T18:46:24.465Z,9.50
2022-09-29T18:48:52.692Z,9.40
2022-09-29T18:51:21.230Z,9.40
2022-09-29T18:53:49.962Z,9.30
2022-09-29T18:56:18.373Z,9.30
2022-09-29T18:58:46.439Z,9.30
2022-09-29T19:01:19.819Z,9.20
2022-09-29T19:03:48.218Z,9.20
2022-09-29T19:06:17.163Z,9.20
2022-09-29T19:08:52.190Z,9.10
2022-09-29T19:11:22.409Z,9.10
2022-09-29T19:13:51.809Z,9.00
2022-09-29T19:16:21.736Z,9.00
2022-09-29T19:18:50.525Z,8.90
2022-09-29T19:21:18.879Z,8.90
2022-09-29T19:23:47.635Z,8.90
2022-09-29T19:26:18.130Z,8.80
2022-09-29T19:28:48.121Z,8.70
2022-09-29T19:31:19.756Z,8.60
2022-09-29T19:33:50.638Z,8.60
2022-09-29T19:36:21.481Z,8.60
2022-09-29T19:38:50.427Z,8.50
2022-09-29T19:41:21.931Z,8.40
2022-09-29T19:43:50.358Z,8.40
2022-09-29T19:46:20.175Z,8.30
2022-09-29T19:48:50.453Z,8.30
2022-09-29T19:51:36.332Z,8.20
2022-09-29T19:54:14.836Z,8.20
2022-09-29T19:56:44.996Z,8.10
2022-09-29T19:59:14.587Z,8.10
2022-09-29T20:01:45.396Z,8.00
2022-09-29T20:04:15.147Z,8.00
2022-09-29T20:06:43.763Z,8.00
2022-09-29T20:09:12.484Z,7.90
2022-09-29T20:11:41.197Z,7.90
2022-09-29T20:14:12.336Z,7.90
2022-09-29T20:16:42.944Z,7.90
2022-09-29T20:19:14.058Z,7.80
2022-09-29T20:21:43.638Z,7.70
2022-09-29T20:24:13.949Z,7.70
2022-09-29T20:26:42.104Z,7.60
2022-09-29T20:29:10.135Z,7.60
2022-09-29T20:31:38.558Z,7.60
2022-09-29T20:34:08.259Z,7.50
2022-09-29T20:36:36.702Z,7.40
2022-09-29T20:39:06.343Z,7.40
2022-09-29T20:41:34.355Z,7.40
2022-09-29T20:44:02.829Z,7.30
2022-09-29T20:46:32.104Z,7.30
2022-09-29T20:49:03.031Z,7.30
2022-09-29T20:51:37.178Z,7.30
2022-09-29T20:54:07.355Z,7.20
2022-09-29T20:56:41.564Z,7.20
2022-09-29T20:59:12.405Z,7.10
2022-09-29T21:01:41.284Z,7.10
2022-09-29T21:04:11.663Z,7.10
2022-09-29T21:06:42.388Z,7.10
2022-09-29T21:09:14.076Z,7.00
2022-09-29T21:11:43.565Z,7.00
2022-09-29T21:14:13.434Z,7.00
2022-09-29T21:16:42.427Z,6.90
2022-09-29T21:19:11.015Z,6.90
2022-09-29T21:21:39.075Z,6.80
2022-09-29T21:24:07.493Z,6.80
2022-09-29T21:26:37.198Z,6.70
2022-09-29T21:29:05.693Z,6.70
2022-09-29T21:31:35.589Z,6.70
2022-09-29T21:34:06.972Z,6.60
2022-09-29T21:36:37.965Z,6.60
2022-09-29T21:39:08.850Z,6.50
2022-09-29T21:41:41.131Z,6.50
2022-09-29T21:44:13.160Z,6.50
2022-09-29T21:46:41.800Z,6.40
2022-09-29T21:49:12.305Z,6.50
2022-09-29T21:51:43.233Z,6.50
2022-09-29T21:54:13.626Z,6.50
2022-09-29T21:56:44.698Z,6.50
2022-09-29T21:59:14.674Z,6.40
2022-09-29T22:01:43.646Z,6.40
2022-09-29T22:04:12.420Z,6.40
2022-09-29T22:06:40.876Z,6.40
2022-09-29T22:09:10.306Z,6.40
2022-09-29T22:11:40.064Z,6.30
2022-09-29T22:14:10.950Z,6.30
2022-09-29T22:16:39.906Z,6.30
2022-09-29T22:19:24.584Z,6.20
2022-09-29T22:21:53.631Z,6.20
2022-09-29T22:24:21.730Z,6.10
2022-09-29T22:26:49.803Z,6.10
2022-09-29T22:29:19.261Z,6.10
2022-09-29T22:31:47.546Z,6.10
2022-09-29T22:34:15.747Z,6.10
2022-09-29T22:36:43.749Z,6.10
2022-09-29T22:39:11.869Z,6.10
2022-09-29T22:41:41.116Z,6.00
2022-09-29T22:44:09.639Z,6.00
2022-09-29T22:46:39.109Z,5.90
2022-09-29T22:49:07.129Z,5.90
2022-09-29T22:51:35.146Z,5.90
2022-09-29T22:54:03.390Z,5.90
2022-09-29T22:56:31.435Z,5.80
2022-09-29T22:59:01.955Z,5.80
2022-09-29T23:01:30.630Z,5.70
2022-09-29T23:04:00.733Z,5.70
2022-09-29T23:06:28.788Z,5.70
2022-09-29T23:08:56.910Z,5.70
2022-09-29T23:11:25.219Z,5.70
2022-09-29T23:13:54.130Z,5.70
2022-09-29T23:16:22.226Z,5.70
2022-09-29T23:18:54.861Z,5.60
2022-09-29T23:21:24.991Z,5.60
2022-09-29T23:23:55.850Z,5.60
2022-09-29T23:26:24.890Z,5.60
2022-09-29T23:28:53.174Z,5.50
2022-09-29T23:31:21.259Z,5.60
2022-09-29T23:33:53.139Z,5.50
2022-09-29T23:36:21.446Z,5.50
2022-09-29T23:39:08.392Z,5.50
2022-09-29T23:41:36.781Z,5.50
2022-09-29T23:44:06.182Z,5.50
2022-09-29T23:46:36.240Z,5.50
2022-09-29T23:49:09.277Z,5.50
2022-09-29T23:51:39.109Z,5.40
2022-09-29T23:54:09.944Z,5.40
2022-09-29T23:56:38.283Z,5.40
2022-09-29T23:59:07.249Z,5.40
